createdAt,value
2019-04-04T00:01:36.644Z,6.40
2019-04-04T00:04:05.529Z,6.40
2019-04-04T00:06:34.038Z,6.50
2019-04-04T00:09:02.737Z,6.30
2019-04-04T00:11:31.565Z,6.30
2019-04-04T00:14:00.001Z,6.40
2019-04-04T00:16:28.549Z,6.40
2019-04-04T00:18:59.069Z,6.40
2019-04-04T00:21:27.467Z,6.30
2019-04-04T00:23:55.961Z,6.30
2019-04-04T00:26:24.417Z,6.30
2019-04-04T00:28:52.859Z,6.30
2019-04-04T00:31:21.483Z,6.30
2019-04-04T00:33:50.034Z,6.40
2019-04-04T00:36:18.566Z,6.30
2019-04-04T00:38:47.215Z,6.30
2019-04-04T00:41:15.795Z,6.30
2019-04-04T00:43:44.342Z,6.30
2019-04-04T00:46:12.853Z,6.30
2019-04-04T00:48:41.314Z,6.20
2019-04-04T00:51:09.909Z,6.20
2019-04-04T00:53:38.544Z,6.30
2019-04-04T00:56:07.009Z,6.20
2019-04-04T00:58:35.529Z,6.20
2019-04-04T01:01:04.557Z,6.30
2019-04-04T01:03:33.721Z,6.30
2019-04-04T01:06:03.494Z,6.30
2019-04-04T01:08:32.431Z,6.20
2019-04-04T01:11:00.902Z,6.20
2019-04-04T01:13:29.469Z,6.30
2019-04-04T01:15:58.075Z,6.40
2019-04-04T01:18:26.541Z,6.50
2019-04-04T01:20:55.026Z,6.50
2019-04-04T01:23:26.858Z,6.50
2019-04-04T01:25:53.694Z,6.40
2019-04-04T01:28:22.296Z,6.40
2019-04-04T01:30:50.819Z,6.50
2019-04-04T01:33:20.092Z,6.60
2019-04-04T01:35:49.540Z,6.60
2019-04-04T01:38:18.144Z,6.60
2019-04-04T01:40:46.583Z,6.60
2019-04-04T01:43:15.218Z,6.70
2019-04-04T01:45:44.967Z,6.70
2019-04-04T01:48:13.838Z,6.70
2019-04-04T01:50:42.274Z,6.70
2019-04-04T01:53:10.726Z,6.60
2019-04-04T01:55:39.328Z,6.70
2019-04-04T01:58:09.707Z,6.70
2019-04-04T02:00:37.957Z,6.70
2019-04-04T02:03:06.512Z,6.60
2019-04-04T02:05:35.366Z,6.60
2019-04-04T02:08:03.990Z,6.60
2019-04-04T02:10:34.564Z,6.60
2019-04-04T02:13:02.766Z,6.60
2019-04-04T02:15:31.214Z,6.40
2019-04-04T02:17:59.665Z,6.40
2019-04-04T02:20:28.113Z,6.50
2019-04-04T02:22:56.737Z,6.60
2019-04-04T02:25:25.181Z,6.70
2019-04-04T02:27:53.646Z,6.70
2019-04-04T02:30:22.176Z,6.80
2019-04-04T02:32:50.821Z,6.80
2019-04-04T02:35:19.281Z,6.80
2019-04-04T02:37:47.808Z,6.80
2019-04-04T02:40:16.600Z,6.90
2019-04-04T02:42:45.066Z,6.90
2019-04-04T02:45:14.310Z,6.90
2019-04-04T02:47:43.093Z,6.80
2019-04-04T02:50:11.707Z,6.80
2019-04-04T02:52:40.164Z,6.90
2019-04-04T02:55:08.716Z,7.00
2019-04-04T02:57:41.118Z,7.00
2019-04-04T03:00:07.916Z,7.00
2019-04-04T03:02:37.081Z,7.00
2019-04-04T03:05:06.861Z,7.10
2019-04-04T03:07:35.295Z,7.00
2019-04-04T03:10:05.202Z,7.00
2019-04-04T03:12:33.637Z,6.90
2019-04-04T03:15:02.247Z,6.90
2019-04-04T03:17:32.639Z,6.80
2019-04-04T03:20:00.881Z,6.80
2019-04-04T03:22:29.524Z,6.80
2019-04-04T03:24:58.229Z,6.80
2019-04-04T03:27:27.158Z,6.70
2019-04-04T03:29:56.525Z,6.80
2019-04-04T03:32:25.096Z,6.80
2019-04-04T03:34:53.727Z,6.80
2019-04-04T03:37:22.249Z,6.90
2019-04-04T03:39:53.098Z,6.80
2019-04-04T03:42:20.950Z,6.80
2019-04-04T03:44:52.767Z,6.80
2019-04-04T03:47:19.783Z,6.80
2019-04-04T03:49:48.395Z,6.80
2019-04-04T03:52:16.838Z,6.70
2019-04-04T03:54:45.351Z,6.80
2019-04-04T03:57:13.824Z,6.60
2019-04-04T03:59:42.283Z,6.70
2019-04-04T04:02:10.742Z,6.70
2019-04-04T04:04:39.375Z,6.70
2019-04-04T04:07:07.918Z,6.80
2019-04-04T04:09:36.400Z,6.80
2019-04-04T04:12:04.923Z,6.80
2019-04-04T04:14:33.463Z,6.90
2019-04-04T04:17:01.963Z,6.90
2019-04-04T04:19:31.493Z,6.70
2019-04-04T04:22:00.151Z,6.60
2019-04-04T04:24:29.740Z,6.60
2019-04-04T04:26:59.214Z,6.60
2019-04-04T04:29:29.820Z,6.40
2019-04-04T04:31:58.098Z,6.50
2019-04-04T04:34:26.666Z,6.30
2019-04-04T04:36:55.466Z,6.40
2019-04-04T04:39:24.148Z,6.40
2019-04-04T04:41:54.237Z,6.40
2019-04-04T04:44:23.183Z,6.40
2019-04-04T04:46:51.644Z,6.30
2019-04-04T04:49:23.169Z,6.40
2019-04-04T04:51:50.277Z,6.50
2019-04-04T04:54:20.399Z,6.50
2019-04-04T04:56:49.242Z,6.60
2019-04-04T04:59:17.687Z,6.60
2019-04-04T05:01:46.140Z,6.60
2019-04-04T05:04:15.886Z,6.70
2019-04-04T05:06:44.330Z,6.70
2019-04-04T05:09:13.958Z,6.70
2019-04-04T05:11:43.666Z,6.80
2019-04-04T05:14:12.271Z,6.80
2019-04-04T05:16:40.795Z,6.80
2019-04-04T05:19:09.354Z,6.70
2019-04-04T05:21:37.910Z,6.80
2019-04-04T05:24:06.433Z,6.80
2019-04-04T05:26:35.194Z,6.90
2019-04-04T05:29:05.292Z,6.80
2019-04-04T05:31:34.078Z,6.80
2019-04-04T05:34:02.648Z,6.80
2019-04-04T05:36:31.231Z,6.80
2019-04-04T05:39:00.085Z,6.80
2019-04-04T05:41:28.558Z,6.70
2019-04-04T05:43:57.391Z,6.60
2019-04-04T05:46:25.831Z,6.50
2019-04-04T05:48:54.299Z,6.50
2019-04-04T05:51:22.754Z,6.50
2019-04-04T05:53:51.411Z,6.40
2019-04-04T05:56:19.911Z,6.30
2019-04-04T05:58:48.639Z,6.30
2019-04-04T06:01:19.170Z,6.30
2019-04-04T06:03:48.069Z,6.30
2019-04-04T06:06:16.729Z,6.30
2019-04-04T06:08:45.197Z,6.20
2019-04-04T06:11:13.872Z,6.20
2019-04-04T06:13:42.584Z,6.10
2019-04-04T06:16:11.369Z,6.10
2019-04-04T06:18:40.998Z,6.10
2019-04-04T06:21:10.147Z,6.00
2019-04-04T06:23:38.643Z,6.00
2019-04-04T06:26:07.724Z,6.00
2019-04-04T06:28:36.308Z,5.90
2019-04-04T06:31:05.131Z,5.80
2019-04-04T06:33:35.290Z,5.80
2019-04-04T06:36:04.150Z,5.80
2019-04-04T06:38:32.662Z,5.80
2019-04-04T06:41:01.496Z,5.80
2019-04-04T06:43:30.183Z,5.60
2019-04-04T06:45:58.786Z,5.60
2019-04-04T06:48:29.377Z,5.50
2019-04-04T06:50:57.692Z,5.40
2019-04-04T06:53:26.131Z,5.40
2019-04-04T06:55:54.692Z,5.30
2019-04-04T06:58:23.196Z,5.30
2019-04-04T07:00:51.948Z,5.30
2019-04-04T07:03:20.391Z,5.30
2019-04-04T07:05:48.932Z,5.20
2019-04-04T07:08:17.465Z,5.20
2019-04-04T07:10:57.395Z,5.20
2019-04-04T07:13:22.213Z,5.10
2019-04-04T07:15:55.908Z,5.00
2019-04-04T07:18:16.562Z,5.00
2019-04-04T07:20:48.060Z,5.00
2019-04-04T07:23:15.494Z,5.10
2019-04-04T07:25:44.188Z,5.00
2019-04-04T07:28:12.698Z,5.00
2019-04-04T07:30:41.126Z,5.00
2019-04-04T07:33:10.040Z,5.00
2019-04-04T07:35:39.887Z,4.90
2019-04-04T07:38:08.448Z,4.90
2019-04-04T07:40:37.433Z,5.00
2019-04-04T07:43:08.561Z,4.90
2019-04-04T07:45:36.603Z,4.80
2019-04-04T07:48:05.139Z,4.80
2019-04-04T07:50:33.597Z,4.80
2019-04-04T07:53:04.852Z,4.80
2019-04-04T07:55:32.571Z,4.80
2019-04-04T07:58:01.070Z,4.90
2019-04-04T08:00:29.573Z,4.90
2019-04-04T08:02:58.118Z,4.90
2019-04-04T08:05:26.625Z,4.90
2019-04-04T08:07:55.062Z,5.00
2019-04-04T08:10:24.457Z,5.00
2019-04-04T08:12:52.976Z,5.00
2019-04-04T08:15:21.501Z,4.90
2019-04-04T08:17:49.932Z,5.00
2019-04-04T08:20:18.601Z,5.00
2019-04-04T08:22:47.042Z,5.10
2019-04-04T08:25:15.737Z,5.10
2019-04-04T08:27:44.179Z,5.10
2019-04-04T08:30:12.697Z,5.20
2019-04-04T08:32:41.314Z,5.30
2019-04-04T08:35:10.226Z,5.40
2019-04-04T08:37:38.728Z,5.50
2019-04-04T08:40:07.755Z,5.60
2019-04-04T08:42:36.268Z,5.60
2019-04-04T08:45:07.159Z,5.50
2019-04-04T08:47:35.764Z,5.40
2019-04-04T08:50:05.741Z,5.50
2019-04-04T08:52:34.171Z,5.40
2019-04-04T08:55:02.629Z,5.40
2019-04-04T08:57:31.047Z,5.30
2019-04-04T08:59:59.528Z,5.30
2019-04-04T09:02:28.170Z,5.40
2019-04-04T09:04:56.729Z,5.40
2019-04-04T09:07:25.164Z,5.60
2019-04-04T09:09:54.015Z,5.70
2019-04-04T09:12:22.646Z,5.80
2019-04-04T09:14:51.365Z,5.80
2019-04-04T09:17:19.826Z,5.90
2019-04-04T09:19:48.538Z,5.90
2019-04-04T09:22:17.058Z,6.00
2019-04-04T09:24:45.486Z,5.90
2019-04-04T09:27:14.157Z,6.00
2019-04-04T09:29:42.867Z,6.10
2019-04-04T09:32:11.328Z,6.00
2019-04-04T09:34:39.994Z,6.10
2019-04-04T09:37:08.797Z,6.10
2019-04-04T09:39:37.650Z,6.00
2019-04-04T09:42:06.184Z,6.10
2019-04-04T09:44:34.623Z,6.10
2019-04-04T09:47:05.607Z,6.20
2019-04-04T09:49:33.493Z,6.20
2019-04-04T09:52:01.979Z,6.20
2019-04-04T09:54:31.057Z,6.30
2019-04-04T09:56:59.520Z,6.30
2019-04-04T09:59:28.172Z,6.30
2019-04-04T10:01:56.876Z,6.30
2019-04-04T10:04:25.313Z,6.30
2019-04-04T10:06:54.292Z,6.50
2019-04-04T10:09:23.244Z,6.50
2019-04-04T10:11:51.885Z,6.40
2019-04-04T10:14:20.661Z,6.40
2019-04-04T10:16:49.218Z,6.40
2019-04-04T10:19:17.694Z,6.40
2019-04-04T10:21:46.443Z,6.40
2019-04-04T10:24:14.910Z,6.40
2019-04-04T10:26:43.415Z,6.50
2019-04-04T10:29:12.143Z,6.60
2019-04-04T10:31:40.630Z,6.70
2019-04-04T10:34:09.256Z,6.70
2019-04-04T10:36:37.769Z,6.60
2019-04-04T10:39:09.325Z,6.60
2019-04-04T10:41:38.102Z,6.80
2019-04-04T10:44:06.829Z,6.80
2019-04-04T10:46:35.341Z,6.80
2019-04-04T10:49:04.026Z,6.80
2019-04-04T10:51:32.472Z,6.80
2019-04-04T10:54:01.195Z,6.90
2019-04-04T10:56:29.903Z,6.90
2019-04-04T10:58:58.361Z,7.00
2019-04-04T11:01:26.803Z,6.90
2019-04-04T11:03:55.326Z,7.10
2019-04-04T11:06:24.724Z,7.10
2019-04-04T11:08:53.293Z,7.10
2019-04-04T11:11:22.024Z,7.10
2019-04-04T11:13:50.575Z,7.20
2019-04-04T11:16:29.579Z,7.10
2019-04-04T11:18:49.170Z,7.10
2019-04-04T11:21:17.610Z,7.00
2019-04-04T11:23:46.234Z,7.10
2019-04-04T11:26:14.725Z,7.10
2019-04-04T11:28:43.151Z,7.10
2019-04-04T11:31:11.692Z,7.20
2019-04-04T11:33:40.314Z,7.30
2019-04-04T11:36:08.758Z,7.30
2019-04-04T11:38:37.204Z,7.30
2019-04-04T11:41:05.754Z,7.30
2019-04-04T11:43:34.258Z,7.20
2019-04-04T11:46:02.777Z,7.20
2019-04-04T11:48:31.340Z,7.20
2019-04-04T11:50:59.804Z,7.30
2019-04-04T11:53:28.348Z,7.40
2019-04-04T11:55:56.792Z,7.40
2019-04-04T11:58:25.258Z,7.40
2019-04-04T12:00:55.354Z,7.40
2019-04-04T12:03:24.142Z,7.30
2019-04-04T12:05:52.597Z,7.20
2019-04-04T12:08:25.747Z,7.30
2019-04-04T12:10:54.225Z,7.20
2019-04-04T12:13:22.840Z,7.20
2019-04-04T12:15:51.386Z,7.10
2019-04-04T12:18:19.886Z,7.10
2019-04-04T12:20:48.715Z,7.10
2019-04-04T12:23:17.150Z,7.00
2019-04-04T12:25:45.683Z,6.90
2019-04-04T12:28:14.235Z,6.90
2019-04-04T12:30:42.892Z,6.80
2019-04-04T12:33:11.475Z,6.80
2019-04-04T12:35:40.016Z,6.80
2019-04-04T12:38:08.622Z,6.80
2019-04-04T12:40:37.243Z,6.90
2019-04-04T12:43:05.840Z,6.90
2019-04-04T12:45:34.350Z,7.00
2019-04-04T12:48:02.992Z,6.80
2019-04-04T12:50:31.512Z,6.80
2019-04-04T12:53:00.065Z,6.80
2019-04-04T12:55:28.501Z,6.70
2019-04-04T12:57:56.987Z,6.80
2019-04-04T13:00:25.581Z,6.90
2019-04-04T13:02:54.072Z,7.00
2019-04-04T13:05:22.508Z,7.00
2019-04-04T13:07:51.119Z,7.00
2019-04-04T13:10:32.128Z,7.00
2019-04-04T13:12:50.139Z,7.10
2019-04-04T13:15:20.119Z,7.10
2019-04-04T13:17:49.271Z,7.20
2019-04-04T13:20:18.168Z,7.20
2019-04-04T13:22:46.770Z,7.20
2019-04-04T13:25:15.506Z,7.10
2019-04-04T13:27:44.316Z,7.10
2019-04-04T13:30:13.226Z,7.00
2019-04-04T13:32:41.718Z,7.00
2019-04-04T13:35:10.583Z,7.00
2019-04-04T13:37:39.223Z,6.90
2019-04-04T13:40:08.602Z,6.80
2019-04-04T13:42:37.023Z,6.70
2019-04-04T13:45:07.037Z,6.80
2019-04-04T13:47:38.223Z,6.80
2019-04-04T13:50:07.612Z,6.90
2019-04-04T13:52:36.064Z,6.80
2019-04-04T13:55:05.966Z,6.70
2019-04-04T13:57:34.565Z,6.50
2019-04-04T14:00:05.512Z,6.60
2019-04-04T14:02:34.023Z,6.50
2019-04-04T14:05:09.749Z,6.50
2019-04-04T14:07:32.727Z,6.60
2019-04-04T14:10:01.208Z,6.50
2019-04-04T14:12:29.643Z,6.40
2019-04-04T14:14:58.291Z,6.40
2019-04-04T14:17:26.816Z,6.30
2019-04-04T14:19:55.336Z,6.30
2019-04-04T14:22:23.792Z,6.30
2019-04-04T14:24:52.438Z,6.40
2019-04-04T14:27:21.054Z,6.40
2019-04-04T14:29:49.524Z,6.30
2019-04-04T14:32:21.013Z,6.40
2019-04-04T14:34:48.547Z,6.40
2019-04-04T14:37:16.981Z,6.40
2019-04-04T14:39:45.410Z,6.40
2019-04-04T14:42:14.042Z,6.40
2019-04-04T14:44:42.486Z,6.30
2019-04-04T14:47:10.996Z,6.30
2019-04-04T14:49:39.551Z,6.20
2019-04-04T14:52:08.071Z,6.10
2019-04-04T14:54:39.359Z,6.10
2019-04-04T14:57:07.422Z,6.10
2019-04-04T14:59:35.866Z,6.00
2019-04-04T15:02:04.636Z,6.10
2019-04-04T15:04:33.126Z,6.10
2019-04-04T15:07:01.647Z,6.00
2019-04-04T15:09:30.239Z,6.00
2019-04-04T15:11:58.785Z,6.00
2019-04-04T15:14:27.223Z,6.00
2019-04-04T15:16:55.879Z,6.00
2019-04-04T15:19:24.691Z,6.10
2019-04-04T15:21:53.217Z,6.00
2019-04-04T15:24:21.652Z,6.10
2019-04-04T15:26:50.170Z,6.10
2019-04-04T15:29:18.631Z,6.10
2019-04-04T15:31:47.227Z,6.10
2019-04-04T15:34:15.669Z,6.20
2019-04-04T15:36:44.246Z,6.10
2019-04-04T15:39:12.723Z,6.20
2019-04-04T15:41:41.176Z,6.20
2019-04-04T15:44:09.667Z,6.20
2019-04-04T15:46:38.268Z,6.20
2019-04-04T15:49:06.733Z,6.10
2019-04-04T15:51:35.208Z,6.10
2019-04-04T15:54:03.738Z,6.10
2019-04-04T15:56:32.383Z,6.10
2019-04-04T15:59:01.213Z,6.00
2019-04-04T16:01:29.706Z,6.00
2019-04-04T16:03:58.183Z,6.10
2019-04-04T16:06:26.924Z,6.10
2019-04-04T16:08:55.481Z,6.00
2019-04-04T16:11:24.013Z,6.00
2019-04-04T16:13:53.709Z,6.00
2019-04-04T16:16:22.142Z,6.10
2019-04-04T16:18:50.619Z,6.10
2019-04-04T16:21:19.345Z,6.10
2019-04-04T16:23:47.940Z,6.00
2019-04-04T16:26:16.606Z,6.00
2019-04-04T16:28:45.134Z,6.00
2019-04-04T16:31:13.579Z,5.90
2019-04-04T16:33:42.043Z,5.90
2019-04-04T16:36:10.827Z,6.00
2019-04-04T16:38:39.367Z,5.90
2019-04-04T16:41:07.938Z,6.00
2019-04-04T16:43:36.399Z,6.10
2019-04-04T16:46:05.102Z,6.10
2019-04-04T16:48:33.602Z,6.10
2019-04-04T16:51:02.054Z,6.20
2019-04-04T16:53:30.766Z,6.10
2019-04-04T16:55:59.463Z,6.10
2019-04-04T16:58:28.181Z,6.10
2019-04-04T17:00:56.718Z,6.10
2019-04-04T17:03:25.371Z,6.00
2019-04-04T17:05:53.951Z,6.10
2019-04-04T17:08:22.830Z,6.00
2019-04-04T17:10:51.452Z,6.00
2019-04-04T17:13:20.014Z,6.10
2019-04-04T17:15:48.492Z,6.10
2019-04-04T17:18:17.086Z,6.10
2019-04-04T17:20:45.739Z,6.10
2019-04-04T17:23:14.173Z,6.10
2019-04-04T17:25:42.882Z,6.10
2019-04-04T17:28:11.412Z,6.10
2019-04-04T17:30:40.330Z,6.10
2019-04-04T17:33:09.273Z,6.10
2019-04-04T17:35:38.416Z,6.10
2019-04-04T17:38:06.990Z,6.00
2019-04-04T17:40:36.165Z,6.00
2019-04-04T17:43:05.075Z,6.00
2019-04-04T17:45:33.780Z,6.00
2019-04-04T17:48:02.756Z,5.90
2019-04-04T17:50:31.479Z,5.90
2019-04-04T17:53:00.523Z,5.90
2019-04-04T17:55:29.842Z,6.00
2019-04-04T17:57:58.893Z,5.90
2019-04-04T18:00:28.648Z,5.90
2019-04-04T18:02:57.213Z,5.90
2019-04-04T18:05:25.708Z,5.90
2019-04-04T18:07:54.191Z,6.00
2019-04-04T18:10:24.081Z,5.90
2019-04-04T18:12:52.864Z,6.00
2019-04-04T18:15:21.390Z,5.90
2019-04-04T18:17:50.079Z,5.90
2019-04-04T18:20:18.874Z,5.90
2019-04-04T18:22:47.453Z,6.00
2019-04-04T18:25:16.019Z,6.00
2019-04-04T18:27:44.575Z,6.00
2019-04-04T18:30:13.687Z,6.00
2019-04-04T18:32:42.263Z,5.90
2019-04-04T18:35:11.661Z,5.90
2019-04-04T18:37:40.325Z,5.80
2019-04-04T18:40:11.275Z,5.80
2019-04-04T18:42:52.221Z,5.80
2019-04-04T18:45:10.801Z,5.80
2019-04-04T18:47:39.347Z,5.80
2019-04-04T18:50:08.249Z,5.80
2019-04-04T18:52:36.872Z,5.80
2019-04-04T18:55:18.804Z,5.90
2019-04-04T18:57:37.247Z,5.90
2019-04-04T19:00:08.964Z,5.90
2019-04-04T19:02:37.591Z,5.90
2019-04-04T19:05:08.228Z,5.90
2019-04-04T19:07:39.616Z,5.90
2019-04-04T19:10:07.815Z,5.90
2019-04-04T19:12:36.308Z,5.90
2019-04-04T19:15:07.969Z,6.00
2019-04-04T19:17:36.775Z,6.00
2019-04-04T19:20:09.914Z,6.00
2019-04-04T19:22:39.852Z,5.90
2019-04-04T19:25:09.719Z,5.90
2019-04-04T19:27:38.307Z,5.90
2019-04-04T19:30:08.421Z,5.80
2019-04-04T19:32:37.207Z,5.80
2019-04-04T19:35:07.599Z,5.80
2019-04-04T19:37:36.130Z,5.90
2019-04-04T19:40:06.261Z,5.90
2019-04-04T19:42:34.922Z,5.90
2019-04-04T19:45:04.134Z,5.90
2019-04-04T19:47:33.109Z,6.00
2019-04-04T19:50:01.680Z,5.90
2019-04-04T19:52:30.312Z,5.90
2019-04-04T19:54:58.757Z,5.90
2019-04-04T19:57:27.482Z,5.90
2019-04-04T19:59:56.078Z,5.90
2019-04-04T20:02:24.683Z,5.90
2019-04-04T20:04:53.196Z,5.80
2019-04-04T20:07:21.962Z,5.80
2019-04-04T20:09:50.755Z,5.80
2019-04-04T20:12:19.596Z,5.90
2019-04-04T20:14:48.124Z,5.90
2019-04-04T20:17:16.601Z,5.90
2019-04-04T20:19:45.306Z,5.90
2019-04-04T20:22:13.924Z,5.90
2019-04-04T20:24:42.407Z,5.90
2019-04-04T20:27:11.022Z,5.80
2019-04-04T20:29:39.547Z,5.80
2019-04-04T20:32:08.006Z,5.80
2019-04-04T20:34:36.443Z,5.80
2019-04-04T20:37:05.151Z,5.80
2019-04-04T20:39:33.631Z,5.80
2019-04-04T20:42:02.215Z,5.80
2019-04-04T20:44:30.734Z,5.70
2019-04-04T20:46:59.198Z,5.60
2019-04-04T20:49:27.629Z,5.70
2019-04-04T20:51:56.273Z,5.60
2019-04-04T20:54:25.018Z,5.60
2019-04-04T20:56:53.894Z,5.60
2019-04-04T20:59:22.441Z,5.60
2019-04-04T21:01:50.879Z,5.60
2019-04-04T21:04:19.576Z,5.60
2019-04-04T21:06:48.183Z,5.60
2019-04-04T21:09:16.666Z,5.60
2019-04-04T21:11:45.441Z,5.70
2019-04-04T21:14:13.955Z,5.60
2019-04-04T21:16:42.422Z,5.70
2019-04-04T21:19:10.891Z,5.70
2019-04-04T21:21:39.585Z,5.70
2019-04-04T21:24:08.094Z,5.70
2019-04-04T21:26:36.518Z,5.80
2019-04-04T21:29:05.348Z,5.80
2019-04-04T21:31:33.799Z,5.80
2019-04-04T21:34:02.252Z,5.80
2019-04-04T21:36:30.687Z,5.80
2019-04-04T21:38:59.273Z,5.80
2019-04-04T21:41:27.864Z,5.80
2019-04-04T21:44:07.871Z,5.70
2019-04-04T21:46:26.595Z,5.70
2019-04-04T21:48:55.124Z,5.80
2019-04-04T21:51:23.578Z,5.80
2019-04-04T21:53:52.019Z,5.80
2019-04-04T21:56:20.492Z,5.80
2019-04-04T21:58:49.028Z,5.80
2019-04-04T22:01:18.110Z,5.80
2019-04-04T22:03:46.635Z,5.70
2019-04-04T22:06:15.475Z,5.70
2019-04-04T22:08:44.067Z,5.70
2019-04-04T22:11:12.541Z,5.60
2019-04-04T22:13:41.230Z,5.60
2019-04-04T22:16:09.851Z,5.50
2019-04-04T22:18:38.386Z,5.50
2019-04-04T22:21:06.846Z,5.50
2019-04-04T22:23:35.418Z,5.60
2019-04-04T22:26:03.889Z,5.60
2019-04-04T22:28:32.422Z,5.50
2019-04-04T22:31:01.322Z,5.50
2019-04-04T22:33:29.763Z,5.50
2019-04-04T22:35:58.217Z,5.50
2019-04-04T22:38:26.791Z,5.50
2019-04-04T22:40:55.255Z,5.50
2019-04-04T22:43:23.807Z,5.40
2019-04-04T22:45:52.343Z,5.40
2019-04-04T22:48:21.059Z,5.50
2019-04-04T22:50:49.779Z,5.50
2019-04-04T22:53:18.526Z,5.50
2019-04-04T22:55:47.305Z,5.50
2019-04-04T22:58:27.761Z,5.50
2019-04-04T23:00:45.999Z,5.50
2019-04-04T23:03:14.543Z,5.50
2019-04-04T23:05:43.014Z,5.50
2019-04-04T23:08:11.919Z,5.50
2019-04-04T23:10:40.568Z,5.40
2019-04-04T23:13:09.208Z,5.50
2019-04-04T23:15:37.660Z,5.50
2019-04-04T23:18:06.303Z,5.50
2019-04-04T23:20:34.928Z,5.40
2019-04-04T23:23:03.382Z,5.40
2019-04-04T23:25:32.065Z,5.40
2019-04-04T23:28:00.647Z,5.50
2019-04-04T23:30:29.180Z,5.40
2019-04-04T23:32:57.928Z,5.50
2019-04-04T23:35:26.432Z,5.50
2019-04-04T23:37:54.951Z,5.50
2019-04-04T23:40:23.820Z,5.40
2019-04-04T23:42:52.288Z,5.40
2019-04-04T23:45:20.805Z,5.40
2019-04-04T23:47:49.340Z,5.40
2019-04-04T23:50:17.839Z,5.40
2019-04-04T23:52:46.322Z,5.40
2019-04-04T23:55:14.766Z,5.60
2019-04-04T23:57:43.230Z,5.50
